Carterhouse, United Kingdom
Current Conditions -  °F | °C
As of 11:50 PM on Friday 28 Nov 2014 (Local Time) from EGOM Reporting Station
Haze Haze  
Wind Chill: 41°   Ceiling: 100
Heat Index: 46°   Visibility: 1.1mi
Dew Point: 46°   Wind: 13mph
Humidity: 100%   Direction: 90°E
Pressure: 29.83"   Gusts: NA
Location:  55.37°N, 2.52°W
Report Text: EGOM 282350Z AUTO 09011KT 1900 BR OVC001/// 08/08 Q1010 REDZ
Loading
Personal Weather Stations






























Interactive Weather Map New forecast layout! Learn more

10-Day Weather Forecast

Advertisements
Track Severe Weather on mobile